sensor_id;sensor_type;location;lat;lon;timestamp;P1;durP1;ratioP1;P2;durP2;ratioP2
73980;SDS011;62348;51.412;5.436;2022-10-15T00:00:37;32.45;;;21.13;;
73980;SDS011;62348;51.412;5.436;2022-10-15T00:03:03;30.30;;;20.58;;
73980;SDS011;62348;51.412;5.436;2022-10-15T00:05:29;29.40;;;20.98;;
73980;SDS011;62348;51.412;5.436;2022-10-15T00:07:55;28.17;;;20.75;;
73980;SDS011;62348;51.412;5.436;2022-10-15T00:10:20;23.45;;;18.77;;
73980;SDS011;62348;51.412;5.436;2022-10-15T00:12:47;25.15;;;19.60;;
73980;SDS011;62348;51.412;5.436;2022-10-15T00:15:12;26.33;;;19.60;;
73980;SDS011;62348;51.412;5.436;2022-10-15T00:17:38;22.10;;;17.77;;
73980;SDS011;62348;51.412;5.436;2022-10-15T00:20:05;27.83;;;19.20;;
73980;SDS011;62348;51.412;5.436;2022-10-15T00:22:32;26.77;;;18.45;;
73980;SDS011;62348;51.412;5.436;2022-10-15T00:24:57;22.63;;;19.17;;
73980;SDS011;62348;51.412;5.436;2022-10-15T00:27:23;24.77;;;19.35;;
73980;SDS011;62348;51.412;5.436;2022-10-15T00:29:48;25.20;;;18.45;;
73980;SDS011;62348;51.412;5.436;2022-10-15T00:32:13;25.23;;;18.17;;
73980;SDS011;62348;51.412;5.436;2022-10-15T00:34:39;25.98;;;19.98;;
73980;SDS011;62348;51.412;5.436;2022-10-15T00:37:05;22.88;;;18.40;;
73980;SDS011;62348;51.412;5.436;2022-10-15T00:39:31;23.90;;;19.50;;
73980;SDS011;62348;51.412;5.436;2022-10-15T00:41:56;24.65;;;19.40;;
73980;SDS011;62348;51.412;5.436;2022-10-15T00:46:54;23.25;;;18.63;;
73980;SDS011;62348;51.412;5.436;2022-10-15T00:49:41;23.63;;;20.05;;
73980;SDS011;62348;51.412;5.436;2022-10-15T00:54:44;26.83;;;19.08;;
73980;SDS011;62348;51.412;5.436;2022-10-15T00:57:14;26.35;;;21.20;;
73980;SDS011;62348;51.412;5.436;2022-10-15T00:59:44;26.40;;;20.83;;
73980;SDS011;62348;51.412;5.436;2022-10-15T01:02:14;24.83;;;19.90;;
73980;SDS011;62348;51.412;5.436;2022-10-15T01:04:42;26.75;;;21.33;;
73980;SDS011;62348;51.412;5.436;2022-10-15T01:07:08;25.08;;;21.45;;
73980;SDS011;62348;51.412;5.436;2022-10-15T01:09:34;25.17;;;20.90;;
73980;SDS011;62348;51.412;5.436;2022-10-15T01:11:59;25.23;;;21.73;;
73980;SDS011;62348;51.412;5.436;2022-10-15T01:28:12;21.83;;;19.63;;
73980;SDS011;62348;51.412;5.436;2022-10-15T01:31:01;26.73;;;22.45;;
73980;SDS011;62348;51.412;5.436;2022-10-15T01:37:30;24.25;;;21.65;;
73980;SDS011;62348;51.412;5.436;2022-10-15T01:39:46;26.15;;;21.38;;
73980;SDS011;62348;51.412;5.436;2022-10-15T01:44:59;26.83;;;20.63;;
73980;SDS011;62348;51.412;5.436;2022-10-15T01:47:34;26.38;;;22.63;;
73980;SDS011;62348;51.412;5.436;2022-10-15T01:50:06;25.88;;;22.35;;
73980;SDS011;62348;51.412;5.436;2022-10-15T01:52:35;27.63;;;23.02;;
73980;SDS011;62348;51.412;5.436;2022-10-15T01:55:05;26.85;;;22.60;;
73980;SDS011;62348;51.412;5.436;2022-10-15T01:57:33;26.40;;;23.08;;
73980;SDS011;62348;51.412;5.436;2022-10-15T02:00:00;26.70;;;23.13;;
73980;SDS011;62348;51.412;5.436;2022-10-15T02:02:28;27.35;;;22.52;;
73980;SDS011;62348;51.412;5.436;2022-10-15T02:04:53;24.88;;;22.17;;
73980;SDS011;62348;51.412;5.436;2022-10-15T02:16:01;27.17;;;24.00;;
73980;SDS011;62348;51.412;5.436;2022-10-15T02:21:36;33.08;;;25.55;;
73980;SDS011;62348;51.412;5.436;2022-10-15T02:24:24;32.78;;;25.67;;
73980;SDS011;62348;51.412;5.436;2022-10-15T02:26:54;30.70;;;26.65;;
73980;SDS011;62348;51.412;5.436;2022-10-15T02:29:23;31.77;;;26.90;;
73980;SDS011;62348;51.412;5.436;2022-10-15T02:31:53;31.13;;;25.17;;
73980;SDS011;62348;51.412;5.436;2022-10-15T02:34:21;30.88;;;25.75;;
73980;SDS011;62348;51.412;5.436;2022-10-15T02:36:50;33.00;;;25.38;;
73980;SDS011;62348;51.412;5.436;2022-10-15T02:39:19;33.53;;;26.88;;
73980;SDS011;62348;51.412;5.436;2022-10-15T02:41:48;32.58;;;26.25;;
73980;SDS011;62348;51.412;5.436;2022-10-15T02:44:14;32.72;;;26.33;;
73980;SDS011;62348;51.412;5.436;2022-10-15T02:46:39;31.83;;;25.25;;
73980;SDS011;62348;51.412;5.436;2022-10-15T02:49:05;33.35;;;26.88;;
73980;SDS011;62348;51.412;5.436;2022-10-15T02:51:31;32.78;;;26.38;;
73980;SDS011;62348;51.412;5.436;2022-10-15T02:53:59;32.78;;;26.48;;
73980;SDS011;62348;51.412;5.436;2022-10-15T02:56:25;36.75;;;27.73;;
73980;SDS011;62348;51.412;5.436;2022-10-15T02:58:50;29.08;;;24.33;;
73980;SDS011;62348;51.412;5.436;2022-10-15T03:01:16;37.45;;;26.17;;
73980;SDS011;62348;51.412;5.436;2022-10-15T03:03:41;34.25;;;28.15;;
73980;SDS011;62348;51.412;5.436;2022-10-15T03:06:07;37.00;;;27.58;;
73980;SDS011;62348;51.412;5.436;2022-10-15T03:08:32;35.22;;;27.30;;
73980;SDS011;62348;51.412;5.436;2022-10-15T03:10:58;42.38;;;28.83;;
73980;SDS011;62348;51.412;5.436;2022-10-15T03:13:25;36.47;;;26.67;;
73980;SDS011;62348;51.412;5.436;2022-10-15T03:15:51;38.03;;;26.95;;
73980;SDS011;62348;51.412;5.436;2022-10-15T03:18:16;34.83;;;25.42;;
73980;SDS011;62348;51.412;5.436;2022-10-15T03:20:42;34.78;;;26.48;;
73980;SDS011;62348;51.412;5.436;2022-10-15T03:23:07;37.38;;;27.40;;
73980;SDS011;62348;51.412;5.436;2022-10-15T03:25:32;36.45;;;26.40;;
73980;SDS011;62348;51.412;5.436;2022-10-15T03:27:58;31.88;;;25.27;;
73980;SDS011;62348;51.412;5.436;2022-10-15T03:30:23;36.10;;;26.63;;
73980;SDS011;62348;51.412;5.436;2022-10-15T03:32:48;42.67;;;28.25;;
73980;SDS011;62348;51.412;5.436;2022-10-15T03:35:14;36.63;;;26.83;;
73980;SDS011;62348;51.412;5.436;2022-10-15T03:37:39;36.95;;;26.92;;
73980;SDS011;62348;51.412;5.436;2022-10-15T03:40:05;37.58;;;27.88;;
73980;SDS011;62348;51.412;5.436;2022-10-15T03:42:31;37.25;;;28.10;;
73980;SDS011;62348;51.412;5.436;2022-10-15T03:44:56;35.85;;;27.85;;
73980;SDS011;62348;51.412;5.436;2022-10-15T03:47:21;36.10;;;27.70;;
73980;SDS011;62348;51.412;5.436;2022-10-15T03:49:47;44.50;;;28.98;;
73980;SDS011;62348;51.412;5.436;2022-10-15T03:52:12;40.58;;;29.30;;
73980;SDS011;62348;51.412;5.436;2022-10-15T03:54:38;44.70;;;30.27;;
73980;SDS011;62348;51.412;5.436;2022-10-15T03:57:03;48.28;;;32.65;;
73980;SDS011;62348;51.412;5.436;2022-10-15T03:59:29;48.55;;;32.10;;
73980;SDS011;62348;51.412;5.436;2022-10-15T04:01:54;49.97;;;33.03;;
73980;SDS011;62348;51.412;5.436;2022-10-15T04:04:19;45.40;;;31.17;;
73980;SDS011;62348;51.412;5.436;2022-10-15T04:06:45;48.60;;;32.00;;
73980;SDS011;62348;51.412;5.436;2022-10-15T04:09:12;53.22;;;35.40;;
73980;SDS011;62348;51.412;5.436;2022-10-15T04:11:38;51.83;;;34.33;;
73980;SDS011;62348;51.412;5.436;2022-10-15T04:14:03;57.38;;;35.70;;
73980;SDS011;62348;51.412;5.436;2022-10-15T04:16:29;54.92;;;36.33;;
73980;SDS011;62348;51.412;5.436;2022-10-15T04:18:55;55.08;;;35.38;;
73980;SDS011;62348;51.412;5.436;2022-10-15T04:21:22;54.28;;;35.70;;
73980;SDS011;62348;51.412;5.436;2022-10-15T04:23:48;63.92;;;38.17;;
73980;SDS011;62348;51.412;5.436;2022-10-15T04:26:13;59.85;;;38.83;;
73980;SDS011;62348;51.412;5.436;2022-10-15T04:28:39;62.88;;;37.50;;
73980;SDS011;62348;51.412;5.436;2022-10-15T04:31:04;62.28;;;38.78;;
73980;SDS011;62348;51.412;5.436;2022-10-15T04:33:30;58.53;;;37.65;;
73980;SDS011;62348;51.412;5.436;2022-10-15T04:35:59;61.67;;;39.58;;
73980;SDS011;62348;51.412;5.436;2022-10-15T04:38:28;65.78;;;38.00;;
73980;SDS011;62348;51.412;5.436;2022-10-15T04:41:01;63.75;;;39.35;;
73980;SDS011;62348;51.412;5.436;2022-10-15T04:43:28;62.92;;;41.00;;
73980;SDS011;62348;51.412;5.436;2022-10-15T04:45:58;66.57;;;40.83;;
73980;SDS011;62348;51.412;5.436;2022-10-15T04:48:28;59.38;;;37.42;;
73980;SDS011;62348;51.412;5.436;2022-10-15T04:51:05;56.85;;;37.53;;
73980;SDS011;62348;51.412;5.436;2022-10-15T04:53:32;62.00;;;38.10;;
73980;SDS011;62348;51.412;5.436;2022-10-15T04:56:02;60.88;;;36.53;;
73980;SDS011;62348;51.412;5.436;2022-10-15T04:58:29;61.83;;;38.47;;
73980;SDS011;62348;51.412;5.436;2022-10-15T05:01:00;52.38;;;36.53;;
73980;SDS011;62348;51.412;5.436;2022-10-15T05:03:27;58.80;;;37.17;;
73980;SDS011;62348;51.412;5.436;2022-10-15T05:05:52;60.92;;;39.05;;
73980;SDS011;62348;51.412;5.436;2022-10-15T05:08:17;66.65;;;39.58;;
73980;SDS011;62348;51.412;5.436;2022-10-15T05:10:43;59.42;;;38.95;;
73980;SDS011;62348;51.412;5.436;2022-10-15T05:13:08;52.30;;;35.10;;
73980;SDS011;62348;51.412;5.436;2022-10-15T05:15:34;53.53;;;36.33;;
73980;SDS011;62348;51.412;5.436;2022-10-15T05:17:59;58.22;;;38.05;;
73980;SDS011;62348;51.412;5.436;2022-10-15T05:20:25;61.17;;;38.05;;
73980;SDS011;62348;51.412;5.436;2022-10-15T05:22:50;52.47;;;34.78;;
73980;SDS011;62348;51.412;5.436;2022-10-15T05:25:15;50.90;;;35.65;;
73980;SDS011;62348;51.412;5.436;2022-10-15T05:27:41;56.60;;;34.85;;
73980;SDS011;62348;51.412;5.436;2022-10-15T05:30:06;49.75;;;33.70;;
73980;SDS011;62348;51.412;5.436;2022-10-15T05:32:32;48.15;;;32.50;;
73980;SDS011;62348;51.412;5.436;2022-10-15T05:34:57;48.33;;;32.80;;
73980;SDS011;62348;51.412;5.436;2022-10-15T05:37:23;50.88;;;32.78;;
73980;SDS011;62348;51.412;5.436;2022-10-15T05:39:48;48.17;;;32.25;;
73980;SDS011;62348;51.412;5.436;2022-10-15T05:42:14;51.05;;;34.53;;
73980;SDS011;62348;51.412;5.436;2022-10-15T05:44:39;50.97;;;35.45;;
73980;SDS011;62348;51.412;5.436;2022-10-15T05:47:04;48.17;;;33.80;;
73980;SDS011;62348;51.412;5.436;2022-10-15T05:49:30;49.15;;;33.90;;
73980;SDS011;62348;51.412;5.436;2022-10-15T05:51:56;49.60;;;33.55;;
73980;SDS011;62348;51.412;5.436;2022-10-15T05:54:21;55.25;;;34.08;;
73980;SDS011;62348;51.412;5.436;2022-10-15T05:56:46;50.38;;;34.28;;
73980;SDS011;62348;51.412;5.436;2022-10-15T05:59:12;51.40;;;33.92;;
73980;SDS011;62348;51.412;5.436;2022-10-15T06:01:37;51.25;;;32.03;;
73980;SDS011;62348;51.412;5.436;2022-10-15T06:04:02;42.97;;;30.63;;
73980;SDS011;62348;51.412;5.436;2022-10-15T06:06:28;47.80;;;31.83;;
73980;SDS011;62348;51.412;5.436;2022-10-15T06:08:53;46.63;;;31.88;;
73980;SDS011;62348;51.412;5.436;2022-10-15T06:11:19;43.92;;;29.88;;
73980;SDS011;62348;51.412;5.436;2022-10-15T06:13:45;41.08;;;29.48;;
73980;SDS011;62348;51.412;5.436;2022-10-15T06:16:12;43.20;;;28.92;;
73980;SDS011;62348;51.412;5.436;2022-10-15T06:18:39;43.70;;;29.10;;
73980;SDS011;62348;51.412;5.436;2022-10-15T06:21:05;42.35;;;29.10;;
73980;SDS011;62348;51.412;5.436;2022-10-15T06:23:31;45.33;;;28.40;;
73980;SDS011;62348;51.412;5.436;2022-10-15T06:26:04;43.17;;;28.23;;
73980;SDS011;62348;51.412;5.436;2022-10-15T06:28:31;42.97;;;27.23;;
73980;SDS011;62348;51.412;5.436;2022-10-15T06:30:58;40.47;;;28.27;;
73980;SDS011;62348;51.412;5.436;2022-10-15T06:33:24;41.33;;;27.50;;
73980;SDS011;62348;51.412;5.436;2022-10-15T06:35:49;44.00;;;27.67;;
73980;SDS011;62348;51.412;5.436;2022-10-15T06:38:15;40.58;;;26.13;;
73980;SDS011;62348;51.412;5.436;2022-10-15T06:40:41;41.95;;;27.10;;
73980;SDS011;62348;51.412;5.436;2022-10-15T06:43:09;42.45;;;26.52;;
73980;SDS011;62348;51.412;5.436;2022-10-15T06:45:36;42.20;;;26.67;;
73980;SDS011;62348;51.412;5.436;2022-10-15T06:48:03;40.80;;;27.52;;
73980;SDS011;62348;51.412;5.436;2022-10-15T06:50:30;38.55;;;24.65;;
73980;SDS011;62348;51.412;5.436;2022-10-15T06:52:57;39.85;;;24.50;;
73980;SDS011;62348;51.412;5.436;2022-10-15T06:55:22;42.35;;;26.50;;
73980;SDS011;62348;51.412;5.436;2022-10-15T06:57:48;36.28;;;24.67;;
73980;SDS011;62348;51.412;5.436;2022-10-15T07:00:14;40.55;;;25.80;;
73980;SDS011;62348;51.412;5.436;2022-10-15T07:02:40;39.40;;;26.33;;
73980;SDS011;62348;51.412;5.436;2022-10-15T07:05:06;37.15;;;24.88;;
73980;SDS011;62348;51.412;5.436;2022-10-15T07:07:31;36.65;;;26.00;;
73980;SDS011;62348;51.412;5.436;2022-10-15T07:09:57;38.25;;;24.48;;
73980;SDS011;62348;51.412;5.436;2022-10-15T07:12:22;39.28;;;25.52;;
73980;SDS011;62348;51.412;5.436;2022-10-15T07:14:47;38.22;;;25.00;;
73980;SDS011;62348;51.412;5.436;2022-10-15T07:17:13;39.10;;;24.63;;
73980;SDS011;62348;51.412;5.436;2022-10-15T07:19:39;36.08;;;24.45;;
73980;SDS011;62348;51.412;5.436;2022-10-15T07:22:04;35.88;;;23.88;;
73980;SDS011;62348;51.412;5.436;2022-10-15T07:24:30;36.83;;;23.70;;
73980;SDS011;62348;51.412;5.436;2022-10-15T07:26:56;37.90;;;24.85;;
73980;SDS011;62348;51.412;5.436;2022-10-15T07:29:21;34.50;;;22.50;;
73980;SDS011;62348;51.412;5.436;2022-10-15T07:31:46;34.60;;;23.25;;
73980;SDS011;62348;51.412;5.436;2022-10-15T07:34:12;33.28;;;22.13;;
73980;SDS011;62348;51.412;5.436;2022-10-15T07:36:37;31.55;;;21.27;;
73980;SDS011;62348;51.412;5.436;2022-10-15T07:39:03;28.90;;;19.92;;
73980;SDS011;62348;51.412;5.436;2022-10-15T07:41:29;29.80;;;20.85;;
73980;SDS011;62348;51.412;5.436;2022-10-15T07:43:55;28.25;;;20.05;;
73980;SDS011;62348;51.412;5.436;2022-10-15T07:46:20;23.33;;;17.98;;
73980;SDS011;62348;51.412;5.436;2022-10-15T07:48:46;22.33;;;17.52;;
73980;SDS011;62348;51.412;5.436;2022-10-15T07:51:11;27.65;;;18.63;;
73980;SDS011;62348;51.412;5.436;2022-10-15T07:53:37;24.75;;;18.08;;
73980;SDS011;62348;51.412;5.436;2022-10-15T07:56:04;21.23;;;15.27;;
73980;SDS011;62348;51.412;5.436;2022-10-15T07:58:34;24.00;;;15.60;;
73980;SDS011;62348;51.412;5.436;2022-10-15T08:01:02;21.75;;;15.90;;
73980;SDS011;62348;51.412;5.436;2022-10-15T08:03:29;22.20;;;15.05;;
73980;SDS011;62348;51.412;5.436;2022-10-15T08:05:55;20.23;;;14.75;;
73980;SDS011;62348;51.412;5.436;2022-10-15T08:08:21;18.95;;;13.35;;
73980;SDS011;62348;51.412;5.436;2022-10-15T08:10:46;17.95;;;13.05;;
73980;SDS011;62348;51.412;5.436;2022-10-15T08:13:12;19.00;;;13.02;;
73980;SDS011;62348;51.412;5.436;2022-10-15T08:15:38;16.90;;;13.05;;
73980;SDS011;62348;51.412;5.436;2022-10-15T08:18:04;17.08;;;12.07;;
73980;SDS011;62348;51.412;5.436;2022-10-15T08:20:29;18.02;;;13.05;;
73980;SDS011;62348;51.412;5.436;2022-10-15T08:22:55;16.15;;;11.77;;
73980;SDS011;62348;51.412;5.436;2022-10-15T08:25:20;14.95;;;10.63;;
73980;SDS011;62348;51.412;5.436;2022-10-15T08:27:46;14.30;;;10.05;;
73980;SDS011;62348;51.412;5.436;2022-10-15T08:30:11;14.27;;;9.10;;
73980;SDS011;62348;51.412;5.436;2022-10-15T08:32:36;12.43;;;9.05;;
73980;SDS011;62348;51.412;5.436;2022-10-15T08:35:02;12.52;;;9.52;;
73980;SDS011;62348;51.412;5.436;2022-10-15T08:37:27;13.75;;;9.40;;
73980;SDS011;62348;51.412;5.436;2022-10-15T08:39:53;14.40;;;8.77;;
73980;SDS011;62348;51.412;5.436;2022-10-15T08:42:19;11.93;;;7.30;;
73980;SDS011;62348;51.412;5.436;2022-10-15T08:44:54;13.98;;;8.75;;
73980;SDS011;62348;51.412;5.436;2022-10-15T08:50:05;11.10;;;8.15;;
73980;SDS011;62348;51.412;5.436;2022-10-15T08:55:13;13.80;;;7.82;;
73980;SDS011;62348;51.412;5.436;2022-10-15T09:05:30;9.63;;;6.50;;
73980;SDS011;62348;51.412;5.436;2022-10-15T09:11:04;9.98;;;5.90;;
73980;SDS011;62348;51.412;5.436;2022-10-15T09:13:38;9.63;;;6.55;;
73980;SDS011;62348;51.412;5.436;2022-10-15T09:16:14;8.02;;;6.32;;
73980;SDS011;62348;51.412;5.436;2022-10-15T09:18:41;7.88;;;5.97;;
73980;SDS011;62348;51.412;5.436;2022-10-15T09:21:08;9.38;;;5.75;;
73980;SDS011;62348;51.412;5.436;2022-10-15T09:23:35;8.13;;;5.30;;
73980;SDS011;62348;51.412;5.436;2022-10-15T09:31:35;9.25;;;4.28;;
73980;SDS011;62348;51.412;5.436;2022-10-15T09:34:13;5.68;;;4.20;;
73980;SDS011;62348;51.412;5.436;2022-10-15T09:36:55;9.25;;;4.28;;
73980;SDS011;62348;51.412;5.436;2022-10-15T09:39:40;5.78;;;4.40;;
73980;SDS011;62348;51.412;5.436;2022-10-15T09:42:28;4.85;;;4.25;;
73980;SDS011;62348;51.412;5.436;2022-10-15T09:44:59;5.82;;;4.32;;
73980;SDS011;62348;51.412;5.436;2022-10-15T09:47:36;7.18;;;4.93;;
73980;SDS011;62348;51.412;5.436;2022-10-15T09:50:06;4.35;;;3.75;;
73980;SDS011;62348;51.412;5.436;2022-10-15T09:57:52;4.60;;;3.13;;
73980;SDS011;62348;51.412;5.436;2022-10-15T10:00:20;3.75;;;2.95;;
73980;SDS011;62348;51.412;5.436;2022-10-15T10:03:05;6.32;;;3.88;;
73980;SDS011;62348;51.412;5.436;2022-10-15T10:05:32;5.35;;;3.72;;
73980;SDS011;62348;51.412;5.436;2022-10-15T10:08:08;5.35;;;3.17;;
73980;SDS011;62348;51.412;5.436;2022-10-15T10:10:35;5.05;;;3.22;;
73980;SDS011;62348;51.412;5.436;2022-10-15T10:13:01;3.08;;;2.40;;
73980;SDS011;62348;51.412;5.436;2022-10-15T10:15:34;4.75;;;2.47;;
73980;SDS011;62348;51.412;5.436;2022-10-15T10:18:03;2.27;;;2.07;;
73980;SDS011;62348;51.412;5.436;2022-10-15T10:20:32;3.03;;;2.17;;
73980;SDS011;62348;51.412;5.436;2022-10-15T10:22:58;3.10;;;2.25;;
73980;SDS011;62348;51.412;5.436;2022-10-15T10:27:52;2.15;;;1.95;;
73980;SDS011;62348;51.412;5.436;2022-10-15T10:30:18;2.97;;;1.65;;
73980;SDS011;62348;51.412;5.436;2022-10-15T10:32:44;2.15;;;1.50;;
73980;SDS011;62348;51.412;5.436;2022-10-15T10:35:21;1.83;;;1.33;;
73980;SDS011;62348;51.412;5.436;2022-10-15T10:37:48;2.88;;;1.73;;
73980;SDS011;62348;51.412;5.436;2022-10-15T10:40:22;2.17;;;1.50;;
73980;SDS011;62348;51.412;5.436;2022-10-15T10:43:38;1.63;;;1.50;;
73980;SDS011;62348;51.412;5.436;2022-10-15T10:46:00;3.70;;;1.52;;
73980;SDS011;62348;51.412;5.436;2022-10-15T10:51:11;2.28;;;1.63;;
73980;SDS011;62348;51.412;5.436;2022-10-15T10:56:34;3.72;;;1.80;;
73980;SDS011;62348;51.412;5.436;2022-10-15T11:01:57;3.58;;;1.40;;
73980;SDS011;62348;51.412;5.436;2022-10-15T11:04:30;1.77;;;1.35;;
73980;SDS011;62348;51.412;5.436;2022-10-15T11:09:58;1.40;;;1.30;;
73980;SDS011;62348;51.412;5.436;2022-10-15T11:26:23;2.80;;;2.60;;
73980;SDS011;62348;51.412;5.436;2022-10-15T11:34:48;2.72;;;2.53;;
73980;SDS011;62348;51.412;5.436;2022-10-15T11:47:57;4.20;;;3.90;;
73980;SDS011;62348;51.412;5.436;2022-10-15T11:56:30;3.78;;;3.33;;
73980;SDS011;62348;51.412;5.436;2022-10-15T11:59:04;3.67;;;3.38;;
73980;SDS011;62348;51.412;5.436;2022-10-15T12:04:15;3.10;;;2.80;;
73980;SDS011;62348;51.412;5.436;2022-10-15T12:06:48;2.80;;;2.60;;
73980;SDS011;62348;51.412;5.436;2022-10-15T12:09:29;2.58;;;2.00;;
73980;SDS011;62348;51.412;5.436;2022-10-15T12:12:06;2.58;;;2.22;;
73980;SDS011;62348;51.412;5.436;2022-10-15T12:19:59;1.70;;;1.60;;
73980;SDS011;62348;51.412;5.436;2022-10-15T12:22:34;2.95;;;1.45;;
73980;SDS011;62348;51.412;5.436;2022-10-15T12:25:02;1.60;;;1.50;;
73980;SDS011;62348;51.412;5.436;2022-10-15T12:27:29;1.50;;;1.40;;
73980;SDS011;62348;51.412;5.436;2022-10-15T12:32:29;1.60;;;1.50;;
73980;SDS011;62348;51.412;5.436;2022-10-15T12:37:31;0.90;;;0.90;;
73980;SDS011;62348;51.412;5.436;2022-10-15T12:40:33;1.60;;;1.00;;
73980;SDS011;62348;51.412;5.436;2022-10-15T12:45:55;1.20;;;0.95;;
73980;SDS011;62348;51.412;5.436;2022-10-15T12:48:27;1.33;;;1.10;;
73980;SDS011;62348;51.412;5.436;2022-10-15T12:53:48;1.30;;;1.10;;
73980;SDS011;62348;51.412;5.436;2022-10-15T12:58:44;1.27;;;1.17;;
73980;SDS011;62348;51.412;5.436;2022-10-15T13:03:38;1.50;;;1.38;;
73980;SDS011;62348;51.412;5.436;2022-10-15T13:06:38;2.03;;;1.38;;
73980;SDS011;62348;51.412;5.436;2022-10-15T13:11:49;1.55;;;1.45;;
73980;SDS011;62348;51.412;5.436;2022-10-15T13:16:57;1.60;;;1.50;;
73980;SDS011;62348;51.412;5.436;2022-10-15T13:19:30;2.88;;;1.40;;
73980;SDS011;62348;51.412;5.436;2022-10-15T13:21:59;1.55;;;1.45;;
73980;SDS011;62348;51.412;5.436;2022-10-15T13:24:27;1.73;;;1.63;;
73980;SDS011;62348;51.412;5.436;2022-10-15T13:26:55;1.80;;;1.70;;
73980;SDS011;62348;51.412;5.436;2022-10-15T13:29:24;2.85;;;2.00;;
73980;SDS011;62348;51.412;5.436;2022-10-15T13:31:52;2.03;;;1.90;;
73980;SDS011;62348;51.412;5.436;2022-10-15T13:34:30;1.90;;;1.80;;
73980;SDS011;62348;51.412;5.436;2022-10-15T13:37:00;3.15;;;1.88;;
73980;SDS011;62348;51.412;5.436;2022-10-15T13:42:07;2.60;;;2.40;;
73980;SDS011;62348;51.412;5.436;2022-10-15T13:44:33;2.58;;;2.38;;
73980;SDS011;62348;51.412;5.436;2022-10-15T13:46:58;3.00;;;2.80;;
73980;SDS011;62348;51.412;5.436;2022-10-15T13:49:24;3.83;;;3.47;;
73980;SDS011;62348;51.412;5.436;2022-10-15T13:51:49;4.10;;;3.80;;
73980;SDS011;62348;51.412;5.436;2022-10-15T13:54:23;3.17;;;2.20;;
73980;SDS011;62348;51.412;5.436;2022-10-15T13:56:53;1.90;;;1.80;;
73980;SDS011;62348;51.412;5.436;2022-10-15T13:59:22;2.00;;;1.90;;
73980;SDS011;62348;51.412;5.436;2022-10-15T14:01:58;1.75;;;1.65;;
73980;SDS011;62348;51.412;5.436;2022-10-15T14:04:29;2.08;;;1.88;;
73980;SDS011;62348;51.412;5.436;2022-10-15T14:07:03;2.05;;;1.95;;
73980;SDS011;62348;51.412;5.436;2022-10-15T14:09:45;2.13;;;1.80;;
73980;SDS011;62348;51.412;5.436;2022-10-15T14:12:11;1.95;;;1.73;;
73980;SDS011;62348;51.412;5.436;2022-10-15T14:14:38;1.50;;;1.40;;
73980;SDS011;62348;51.412;5.436;2022-10-15T14:19:44;2.85;;;1.10;;
73980;SDS011;62348;51.412;5.436;2022-10-15T14:22:18;1.05;;;1.05;;
73980;SDS011;62348;51.412;5.436;2022-10-15T14:24:49;0.60;;;0.60;;
73980;SDS011;62348;51.412;5.436;2022-10-15T14:27:18;0.57;;;0.52;;
73980;SDS011;62348;51.412;5.436;2022-10-15T14:29:55;1.00;;;0.40;;
73980;SDS011;62348;51.412;5.436;2022-10-15T14:32:30;0.52;;;0.50;;
73980;SDS011;62348;51.412;5.436;2022-10-15T14:35:22;1.75;;;0.60;;
73980;SDS011;62348;51.412;5.436;2022-10-15T14:38:02;1.08;;;0.50;;
73980;SDS011;62348;51.412;5.436;2022-10-15T14:40:30;0.40;;;0.30;;
73980;SDS011;62348;51.412;5.436;2022-10-15T14:43:06;0.77;;;0.30;;
73980;SDS011;62348;51.412;5.436;2022-10-15T14:45:53;0.50;;;0.40;;
73980;SDS011;62348;51.412;5.436;2022-10-15T14:48:22;0.70;;;0.30;;
73980;SDS011;62348;51.412;5.436;2022-10-15T14:50:49;2.85;;;0.93;;
73980;SDS011;62348;51.412;5.436;2022-10-15T14:53:19;0.68;;;0.50;;
73980;SDS011;62348;51.412;5.436;2022-10-15T14:55:55;0.98;;;0.35;;
73980;SDS011;62348;51.412;5.436;2022-10-15T14:58:31;1.52;;;0.60;;
73980;SDS011;62348;51.412;5.436;2022-10-15T15:00:57;0.88;;;0.35;;
73980;SDS011;62348;51.412;5.436;2022-10-15T15:03:26;1.17;;;0.30;;
73980;SDS011;62348;51.412;5.436;2022-10-15T15:06:14;1.35;;;0.70;;
73980;SDS011;62348;51.412;5.436;2022-10-15T15:08:39;1.60;;;0.60;;
73980;SDS011;62348;51.412;5.436;2022-10-15T15:11:05;0.55;;;0.50;;
73980;SDS011;62348;51.412;5.436;2022-10-15T15:13:36;1.92;;;0.50;;
73980;SDS011;62348;51.412;5.436;2022-10-15T15:16:03;2.78;;;0.50;;
73980;SDS011;62348;51.412;5.436;2022-10-15T15:18:29;1.98;;;0.50;;
73980;SDS011;62348;51.412;5.436;2022-10-15T15:20:55;1.55;;;0.70;;
73980;SDS011;62348;51.412;5.436;2022-10-15T15:23:24;0.75;;;0.60;;
73980;SDS011;62348;51.412;5.436;2022-10-15T15:25:52;2.72;;;0.70;;
73980;SDS011;62348;51.412;5.436;2022-10-15T15:28:19;0.70;;;0.50;;
73980;SDS011;62348;51.412;5.436;2022-10-15T15:30:46;1.90;;;0.60;;
73980;SDS011;62348;51.412;5.436;2022-10-15T15:33:19;1.52;;;0.77;;
73980;SDS011;62348;51.412;5.436;2022-10-15T15:38:16;0.75;;;0.70;;
73980;SDS011;62348;51.412;5.436;2022-10-15T15:40:42;2.72;;;0.90;;
73980;SDS011;62348;51.412;5.436;2022-10-15T15:43:10;1.63;;;0.70;;
73980;SDS011;62348;51.412;5.436;2022-10-15T15:45:38;1.45;;;0.75;;
73980;SDS011;62348;51.412;5.436;2022-10-15T15:48:03;1.70;;;0.90;;
73980;SDS011;62348;51.412;5.436;2022-10-15T15:50:29;2.55;;;0.98;;
73980;SDS011;62348;51.412;5.436;2022-10-15T15:52:55;2.92;;;0.70;;
73980;SDS011;62348;51.412;5.436;2022-10-15T15:55:21;1.92;;;0.95;;
73980;SDS011;62348;51.412;5.436;2022-10-15T15:57:47;1.88;;;0.55;;
73980;SDS011;62348;51.412;5.436;2022-10-15T16:00:13;4.10;;;1.10;;
73980;SDS011;62348;51.412;5.436;2022-10-15T16:02:39;1.08;;;0.70;;
73980;SDS011;62348;51.412;5.436;2022-10-15T16:05:05;3.38;;;0.70;;
73980;SDS011;62348;51.412;5.436;2022-10-15T16:07:31;3.55;;;1.00;;
73980;SDS011;62348;51.412;5.436;2022-10-15T16:09:56;1.23;;;0.50;;
73980;SDS011;62348;51.412;5.436;2022-10-15T16:12:22;2.72;;;0.80;;
73980;SDS011;62348;51.412;5.436;2022-10-15T16:14:47;3.30;;;0.90;;
73980;SDS011;62348;51.412;5.436;2022-10-15T16:17:13;2.30;;;0.60;;
73980;SDS011;62348;51.412;5.436;2022-10-15T16:19:38;1.88;;;0.95;;
73980;SDS011;62348;51.412;5.436;2022-10-15T16:22:03;2.05;;;0.65;;
73980;SDS011;62348;51.412;5.436;2022-10-15T16:24:29;2.08;;;0.60;;
73980;SDS011;62348;51.412;5.436;2022-10-15T16:26:54;1.13;;;0.80;;
73980;SDS011;62348;51.412;5.436;2022-10-15T16:29:20;1.30;;;0.98;;
73980;SDS011;62348;51.412;5.436;2022-10-15T16:31:45;3.30;;;1.63;;
73980;SDS011;62348;51.412;5.436;2022-10-15T16:34:11;6.57;;;3.15;;
73980;SDS011;62348;51.412;5.436;2022-10-15T16:36:36;4.88;;;3.42;;
73980;SDS011;62348;51.412;5.436;2022-10-15T16:39:02;4.85;;;2.90;;
73980;SDS011;62348;51.412;5.436;2022-10-15T16:41:28;4.43;;;1.92;;
73980;SDS011;62348;51.412;5.436;2022-10-15T16:43:53;3.17;;;1.60;;
73980;SDS011;62348;51.412;5.436;2022-10-15T16:46:19;6.22;;;1.85;;
73980;SDS011;62348;51.412;5.436;2022-10-15T16:48:50;4.60;;;1.48;;
73980;SDS011;62348;51.412;5.436;2022-10-15T16:51:19;3.03;;;1.00;;
73980;SDS011;62348;51.412;5.436;2022-10-15T16:53:46;2.65;;;0.75;;
73980;SDS011;62348;51.412;5.436;2022-10-15T16:56:13;3.95;;;0.88;;
73980;SDS011;62348;51.412;5.436;2022-10-15T16:58:40;5.00;;;1.30;;
73980;SDS011;62348;51.412;5.436;2022-10-15T17:01:10;3.03;;;1.05;;
73980;SDS011;62348;51.412;5.436;2022-10-15T17:03:37;11.00;;;1.67;;
73980;SDS011;62348;51.412;5.436;2022-10-15T17:06:04;2.22;;;0.70;;
73980;SDS011;62348;51.412;5.436;2022-10-15T17:08:42;4.55;;;1.17;;
73980;SDS011;62348;51.412;5.436;2022-10-15T17:11:15;2.33;;;1.00;;